sensor_id;sensor_type;location;lat;lon;timestamp;temperature;humidity
21473;DHT22;10898;48.072;11.682;2023-09-12T00:01:24;18.00;83.00
21473;DHT22;10898;48.072;11.682;2023-09-12T00:03:38;17.90;83.30
21473;DHT22;10898;48.072;11.682;2023-09-12T00:06:05;17.90;83.10
21473;DHT22;10898;48.072;11.682;2023-09-12T00:08:27;17.90;83.00
21473;DHT22;10898;48.072;11.682;2023-09-12T00:11:06;17.90;83.20
21473;DHT22;10898;48.072;11.682;2023-09-12T00:13:37;17.80;83.30
21473;DHT22;10898;48.072;11.682;2023-09-12T00:15:58;17.80;83.40
21473;DHT22;10898;48.072;11.682;2023-09-12T00:18:07;17.80;83.50
21473;DHT22;10898;48.072;11.682;2023-09-12T00:20:45;17.80;83.50
21473;DHT22;10898;48.072;11.682;2023-09-12T00:23:11;17.70;83.30
21473;DHT22;10898;48.072;11.682;2023-09-12T00:25:39;17.60;83.20
21473;DHT22;10898;48.072;11.682;2023-09-12T00:28:04;17.60;83.30
21473;DHT22;10898;48.072;11.682;2023-09-12T00:30:30;17.60;83.60
21473;DHT22;10898;48.072;11.682;2023-09-12T00:32:55;17.50;83.70
21473;DHT22;10898;48.072;11.682;2023-09-12T00:35:22;17.50;83.80
21473;DHT22;10898;48.072;11.682;2023-09-12T00:37:46;17.50;83.80
21473;DHT22;10898;48.072;11.682;2023-09-12T00:40:10;17.50;83.80
21473;DHT22;10898;48.072;11.682;2023-09-12T00:42:14;17.50;83.70
21473;DHT22;10898;48.072;11.682;2023-09-12T00:44:42;17.50;83.70
21473;DHT22;10898;48.072;11.682;2023-09-12T00:47:23;17.50;83.60
21473;DHT22;10898;48.072;11.682;2023-09-12T00:49:41;17.40;83.50
21473;DHT22;10898;48.072;11.682;2023-09-12T00:52:26;17.40;83.40
21473;DHT22;10898;48.072;11.682;2023-09-12T00:54:58;17.40;83.40
21473;DHT22;10898;48.072;11.682;2023-09-12T00:57:06;17.40;83.50
21473;DHT22;10898;48.072;11.682;2023-09-12T01:00:10;17.30;83.20
21473;DHT22;10898;48.072;11.682;2023-09-12T01:02:48;17.20;83.50
21473;DHT22;10898;48.072;11.682;2023-09-12T01:05:21;17.20;83.60
21473;DHT22;10898;48.072;11.682;2023-09-12T01:07:44;17.20;83.70
21473;DHT22;10898;48.072;11.682;2023-09-12T01:10:28;17.20;83.90
21473;DHT22;10898;48.072;11.682;2023-09-12T01:12:48;17.20;83.90
21473;DHT22;10898;48.072;11.682;2023-09-12T01:15:56;17.20;83.70
21473;DHT22;10898;48.072;11.682;2023-09-12T01:18:19;17.20;83.60
21473;DHT22;10898;48.072;11.682;2023-09-12T01:20:35;17.20;83.60
21473;DHT22;10898;48.072;11.682;2023-09-12T01:28:42;17.20;83.50
21473;DHT22;10898;48.072;11.682;2023-09-12T01:31:25;17.20;83.50
21473;DHT22;10898;48.072;11.682;2023-09-12T01:33:33;17.20;83.40
21473;DHT22;10898;48.072;11.682;2023-09-12T01:35:53;17.20;83.30
21473;DHT22;10898;48.072;11.682;2023-09-12T01:38:13;17.20;83.30
21473;DHT22;10898;48.072;11.682;2023-09-12T01:40:54;17.10;83.40
21473;DHT22;10898;48.072;11.682;2023-09-12T01:43:25;17.00;83.50
21473;DHT22;10898;48.072;11.682;2023-09-12T01:45:53;17.00;83.60
21473;DHT22;10898;48.072;11.682;2023-09-12T01:48:41;17.00;83.50
21473;DHT22;10898;48.072;11.682;2023-09-12T01:51:03;17.00;83.50
21473;DHT22;10898;48.072;11.682;2023-09-12T01:53:27;17.00;83.60
21473;DHT22;10898;48.072;11.682;2023-09-12T01:55:45;16.90;83.70
21473;DHT22;10898;48.072;11.682;2023-09-12T01:58:03;17.00;83.70
21473;DHT22;10898;48.072;11.682;2023-09-12T02:00:26;17.00;83.70
21473;DHT22;10898;48.072;11.682;2023-09-12T02:02:51;16.90;83.70
21473;DHT22;10898;48.072;11.682;2023-09-12T02:05:25;17.00;83.60
21473;DHT22;10898;48.072;11.682;2023-09-12T02:07:41;17.00;83.60
21473;DHT22;10898;48.072;11.682;2023-09-12T02:10:08;17.00;83.60
21473;DHT22;10898;48.072;11.682;2023-09-12T02:12:37;16.90;83.50
21473;DHT22;10898;48.072;11.682;2023-09-12T02:14:50;16.90;83.50
21473;DHT22;10898;48.072;11.682;2023-09-12T02:17:47;16.90;83.60
21473;DHT22;10898;48.072;11.682;2023-09-12T02:20:13;16.80;83.70
21473;DHT22;10898;48.072;11.682;2023-09-12T02:22:54;16.80;83.70
21473;DHT22;10898;48.072;11.682;2023-09-12T02:25:14;16.80;83.70
21473;DHT22;10898;48.072;11.682;2023-09-12T02:28:00;16.70;83.90
21473;DHT22;10898;48.072;11.682;2023-09-12T02:30:16;16.70;83.90
21473;DHT22;10898;48.072;11.682;2023-09-12T02:32:28;16.70;83.70
21473;DHT22;10898;48.072;11.682;2023-09-12T02:35:16;16.70;83.80
21473;DHT22;10898;48.072;11.682;2023-09-12T02:37:28;16.70;84.00
21473;DHT22;10898;48.072;11.682;2023-09-12T02:40:18;16.60;83.90
21473;DHT22;10898;48.072;11.682;2023-09-12T02:42:53;16.60;84.10
21473;DHT22;10898;48.072;11.682;2023-09-12T02:47:47;16.50;83.90
21473;DHT22;10898;48.072;11.682;2023-09-12T02:50:05;16.50;84.10
21473;DHT22;10898;48.072;11.682;2023-09-12T02:52:39;16.50;84.20
21473;DHT22;10898;48.072;11.682;2023-09-12T02:55:00;16.40;84.40
21473;DHT22;10898;48.072;11.682;2023-09-12T02:57:27;16.40;84.30
21473;DHT22;10898;48.072;11.682;2023-09-12T02:59:42;16.40;84.30
21473;DHT22;10898;48.072;11.682;2023-09-12T03:02:03;16.40;84.40
21473;DHT22;10898;48.072;11.682;2023-09-12T03:04:24;16.40;84.30
21473;DHT22;10898;48.072;11.682;2023-09-12T03:06:46;16.40;84.30
21473;DHT22;10898;48.072;11.682;2023-09-12T03:09:02;16.40;84.50
21473;DHT22;10898;48.072;11.682;2023-09-12T03:11:29;16.40;84.70
21473;DHT22;10898;48.072;11.682;2023-09-12T03:13:40;16.40;84.70
21473;DHT22;10898;48.072;11.682;2023-09-12T03:16:02;16.40;84.70
21473;DHT22;10898;48.072;11.682;2023-09-12T03:18:45;16.30;84.70
21473;DHT22;10898;48.072;11.682;2023-09-12T03:21:00;16.20;84.80
21473;DHT22;10898;48.072;11.682;2023-09-12T03:23:19;16.20;85.00
21473;DHT22;10898;48.072;11.682;2023-09-12T03:25:39;16.20;84.90
21473;DHT22;10898;48.072;11.682;2023-09-12T03:27:53;16.20;85.00
21473;DHT22;10898;48.072;11.682;2023-09-12T03:30:09;16.20;85.00
21473;DHT22;10898;48.072;11.682;2023-09-12T03:32:50;16.20;85.00
21473;DHT22;10898;48.072;11.682;2023-09-12T03:35:32;16.20;85.10
21473;DHT22;10898;48.072;11.682;2023-09-12T03:37:52;16.10;85.40
21473;DHT22;10898;48.072;11.682;2023-09-12T03:40:19;16.10;85.70
21473;DHT22;10898;48.072;11.682;2023-09-12T03:42:41;16.00;85.90
21473;DHT22;10898;48.072;11.682;2023-09-12T03:45:06;16.00;85.70
21473;DHT22;10898;48.072;11.682;2023-09-12T03:47:29;16.00;85.70
21473;DHT22;10898;48.072;11.682;2023-09-12T03:50:13;16.00;85.70
21473;DHT22;10898;48.072;11.682;2023-09-12T03:52:55;16.00;85.50
21473;DHT22;10898;48.072;11.682;2023-09-12T03:55:16;16.00;85.40
21473;DHT22;10898;48.072;11.682;2023-09-12T03:57:34;15.90;85.60
21473;DHT22;10898;48.072;11.682;2023-09-12T04:00:12;15.90;85.70
21473;DHT22;10898;48.072;11.682;2023-09-12T04:02:32;15.90;85.50
21473;DHT22;10898;48.072;11.682;2023-09-12T04:04:56;15.80;85.80
21473;DHT22;10898;48.072;11.682;2023-09-12T04:07:27;15.80;85.80
21473;DHT22;10898;48.072;11.682;2023-09-12T04:12:27;15.80;86.30
21473;DHT22;10898;48.072;11.682;2023-09-12T04:14:52;15.80;86.30
21473;DHT22;10898;48.072;11.682;2023-09-12T04:17:04;15.80;86.30
21473;DHT22;10898;48.072;11.682;2023-09-12T04:19:36;15.80;86.60
21473;DHT22;10898;48.072;11.682;2023-09-12T04:22:01;15.80;86.10
21473;DHT22;10898;48.072;11.682;2023-09-12T04:24:42;15.80;85.80
21473;DHT22;10898;48.072;11.682;2023-09-12T04:27:25;15.80;85.80
21473;DHT22;10898;48.072;11.682;2023-09-12T04:30:12;15.80;85.70
21473;DHT22;10898;48.072;11.682;2023-09-12T04:33:04;15.80;85.80
21473;DHT22;10898;48.072;11.682;2023-09-12T04:35:21;15.70;86.10
21473;DHT22;10898;48.072;11.682;2023-09-12T04:37:59;15.70;86.30
21473;DHT22;10898;48.072;11.682;2023-09-12T04:40:21;15.70;86.20
21473;DHT22;10898;48.072;11.682;2023-09-12T04:42:47;15.60;86.00
21473;DHT22;10898;48.072;11.682;2023-09-12T04:52:22;15.60;86.00
21473;DHT22;10898;48.072;11.682;2023-09-12T04:54:24;15.60;86.20
21473;DHT22;10898;48.072;11.682;2023-09-12T04:56:26;15.60;86.10
21473;DHT22;10898;48.072;11.682;2023-09-12T04:58:28;15.60;86.30
21473;DHT22;10898;48.072;11.682;2023-09-12T05:00:30;15.60;86.20
21473;DHT22;10898;48.072;11.682;2023-09-12T05:02:32;15.60;86.10
21473;DHT22;10898;48.072;11.682;2023-09-12T05:04:34;15.60;86.20
21473;DHT22;10898;48.072;11.682;2023-09-12T05:06:36;15.60;86.50
21473;DHT22;10898;48.072;11.682;2023-09-12T05:08:37;15.60;86.40
21473;DHT22;10898;48.072;11.682;2023-09-12T05:10:39;15.60;86.60
21473;DHT22;10898;48.072;11.682;2023-09-12T05:12:41;15.60;86.30
21473;DHT22;10898;48.072;11.682;2023-09-12T05:14:43;15.60;86.30
21473;DHT22;10898;48.072;11.682;2023-09-12T05:16:45;15.60;86.20
21473;DHT22;10898;48.072;11.682;2023-09-12T05:18:46;15.60;86.30
21473;DHT22;10898;48.072;11.682;2023-09-12T05:20:50;15.60;86.30
21473;DHT22;10898;48.072;11.682;2023-09-12T05:22:52;15.60;86.30
21473;DHT22;10898;48.072;11.682;2023-09-12T05:24:54;15.60;86.40
21473;DHT22;10898;48.072;11.682;2023-09-12T05:26:56;15.60;86.40
21473;DHT22;10898;48.072;11.682;2023-09-12T05:28:57;15.60;86.80
21473;DHT22;10898;48.072;11.682;2023-09-12T05:30:59;15.70;86.80
21473;DHT22;10898;48.072;11.682;2023-09-12T05:33:01;15.70;86.90
21473;DHT22;10898;48.072;11.682;2023-09-12T05:35:03;15.70;86.80
21473;DHT22;10898;48.072;11.682;2023-09-12T05:37:22;15.70;86.80
21473;DHT22;10898;48.072;11.682;2023-09-12T05:39:23;15.80;86.90
21473;DHT22;10898;48.072;11.682;2023-09-12T05:41:25;15.80;86.90
21473;DHT22;10898;48.072;11.682;2023-09-12T05:43:27;15.80;87.00
21473;DHT22;10898;48.072;11.682;2023-09-12T05:45:29;15.80;87.10
21473;DHT22;10898;48.072;11.682;2023-09-12T05:47:32;15.90;87.30
21473;DHT22;10898;48.072;11.682;2023-09-12T05:49:34;15.90;87.50
21473;DHT22;10898;48.072;11.682;2023-09-12T05:51:36;15.90;87.50
21473;DHT22;10898;48.072;11.682;2023-09-12T05:53:37;16.00;87.30
21473;DHT22;10898;48.072;11.682;2023-09-12T05:55:39;16.00;87.30
21473;DHT22;10898;48.072;11.682;2023-09-12T05:57:41;16.00;87.20
21473;DHT22;10898;48.072;11.682;2023-09-12T05:59:43;16.00;87.30
21473;DHT22;10898;48.072;11.682;2023-09-12T06:01:45;16.10;87.30
21473;DHT22;10898;48.072;11.682;2023-09-12T06:03:47;16.10;87.30
21473;DHT22;10898;48.072;11.682;2023-09-12T06:05:49;16.20;87.50
21473;DHT22;10898;48.072;11.682;2023-09-12T06:07:50;16.20;87.60
21473;DHT22;10898;48.072;11.682;2023-09-12T06:09:52;16.20;87.30
21473;DHT22;10898;48.072;11.682;2023-09-12T06:11:54;16.40;87.30
21473;DHT22;10898;48.072;11.682;2023-09-12T06:13:56;16.40;87.00
21473;DHT22;10898;48.072;11.682;2023-09-12T06:15:59;16.40;87.10
21473;DHT22;10898;48.072;11.682;2023-09-12T06:18:01;16.50;86.90
21473;DHT22;10898;48.072;11.682;2023-09-12T06:20:03;16.50;86.90
21473;DHT22;10898;48.072;11.682;2023-09-12T06:22:08;16.60;86.10
21473;DHT22;10898;48.072;11.682;2023-09-12T06:26:12;16.70;86.30
21473;DHT22;10898;48.072;11.682;2023-09-12T06:28:14;16.80;85.90
21473;DHT22;10898;48.072;11.682;2023-09-12T06:30:27;16.90;85.70
21473;DHT22;10898;48.072;11.682;2023-09-12T06:32:29;16.90;85.80
21473;DHT22;10898;48.072;11.682;2023-09-12T06:34:31;17.00;85.80
21473;DHT22;10898;48.072;11.682;2023-09-12T06:36:33;17.00;85.20
21473;DHT22;10898;48.072;11.682;2023-09-12T06:38:34;17.10;84.90
21473;DHT22;10898;48.072;11.682;2023-09-12T06:40:36;17.20;84.70
21473;DHT22;10898;48.072;11.682;2023-09-12T06:42:38;17.30;84.50
21473;DHT22;10898;48.072;11.682;2023-09-12T06:44:40;17.40;84.30
21473;DHT22;10898;48.072;11.682;2023-09-12T06:46:42;17.50;84.00
21473;DHT22;10898;48.072;11.682;2023-09-12T06:48:44;17.50;83.80
21473;DHT22;10898;48.072;11.682;2023-09-12T06:50:46;17.60;83.40
21473;DHT22;10898;48.072;11.682;2023-09-12T06:52:52;17.70;83.50
21473;DHT22;10898;48.072;11.682;2023-09-12T06:54:57;17.80;83.30
21473;DHT22;10898;48.072;11.682;2023-09-12T06:56:59;17.80;83.60
21473;DHT22;10898;48.072;11.682;2023-09-12T06:59:01;18.00;83.70
21473;DHT22;10898;48.072;11.682;2023-09-12T07:01:06;18.00;83.40
21473;DHT22;10898;48.072;11.682;2023-09-12T07:03:08;18.00;83.10
21473;DHT22;10898;48.072;11.682;2023-09-12T07:05:10;18.10;82.70
21473;DHT22;10898;48.072;11.682;2023-09-12T07:07:11;18.20;82.30
21473;DHT22;10898;48.072;11.682;2023-09-12T07:09:13;18.30;82.50
21473;DHT22;10898;48.072;11.682;2023-09-12T07:11:16;18.40;82.50
21473;DHT22;10898;48.072;11.682;2023-09-12T07:13:18;18.50;82.10
21473;DHT22;10898;48.072;11.682;2023-09-12T07:15:20;18.50;81.80
21473;DHT22;10898;48.072;11.682;2023-09-12T07:17:22;18.60;81.70
21473;DHT22;10898;48.072;11.682;2023-09-12T07:19:23;18.70;81.60
21473;DHT22;10898;48.072;11.682;2023-09-12T07:21:25;18.80;81.00
21473;DHT22;10898;48.072;11.682;2023-09-12T07:23:27;18.90;81.00
21473;DHT22;10898;48.072;11.682;2023-09-12T07:25:29;19.00;80.50
21473;DHT22;10898;48.072;11.682;2023-09-12T07:27:31;19.10;80.50
21473;DHT22;10898;48.072;11.682;2023-09-12T07:29:33;19.20;80.40
21473;DHT22;10898;48.072;11.682;2023-09-12T07:31:35;19.30;79.50
21473;DHT22;10898;48.072;11.682;2023-09-12T07:33:36;19.40;79.00
21473;DHT22;10898;48.072;11.682;2023-09-12T07:35:38;19.50;78.50
21473;DHT22;10898;48.072;11.682;2023-09-12T07:37:41;19.60;78.40
21473;DHT22;10898;48.072;11.682;2023-09-12T07:39:44;19.70;78.70
21473;DHT22;10898;48.072;11.682;2023-09-12T07:41:45;19.80;78.40
21473;DHT22;10898;48.072;11.682;2023-09-12T07:43:47;19.90;78.20
21473;DHT22;10898;48.072;11.682;2023-09-12T07:45:49;20.00;78.20
21473;DHT22;10898;48.072;11.682;2023-09-12T07:47:51;20.10;77.00
21473;DHT22;10898;48.072;11.682;2023-09-12T07:49:54;20.30;76.50
21473;DHT22;10898;48.072;11.682;2023-09-12T07:51:55;20.30;75.90
21473;DHT22;10898;48.072;11.682;2023-09-12T07:53:58;20.50;75.30
21473;DHT22;10898;48.072;11.682;2023-09-12T07:56:00;20.60;74.60
21473;DHT22;10898;48.072;11.682;2023-09-12T07:58:02;20.70;74.90
21473;DHT22;10898;48.072;11.682;2023-09-12T08:00:04;20.80;74.40
21473;DHT22;10898;48.072;11.682;2023-09-12T08:02:12;20.80;74.80
21473;DHT22;10898;48.072;11.682;2023-09-12T08:04:14;20.90;75.00
21473;DHT22;10898;48.072;11.682;2023-09-12T08:06:16;21.00;75.30
21473;DHT22;10898;48.072;11.682;2023-09-12T08:08:18;21.10;74.00
21473;DHT22;10898;48.072;11.682;2023-09-12T08:10:20;21.10;74.50
21473;DHT22;10898;48.072;11.682;2023-09-12T08:12:22;21.30;74.00
21473;DHT22;10898;48.072;11.682;2023-09-12T08:14:25;21.40;73.50
21473;DHT22;10898;48.072;11.682;2023-09-12T08:16:26;21.40;74.40
21473;DHT22;10898;48.072;11.682;2023-09-12T08:18:29;21.50;73.50
21473;DHT22;10898;48.072;11.682;2023-09-12T08:20:31;21.70;72.70
21473;DHT22;10898;48.072;11.682;2023-09-12T08:22:33;21.70;72.40
21473;DHT22;10898;48.072;11.682;2023-09-12T08:24:35;21.80;71.40
21473;DHT22;10898;48.072;11.682;2023-09-12T08:26:37;21.90;71.60
21473;DHT22;10898;48.072;11.682;2023-09-12T08:28:39;22.00;70.70
21473;DHT22;10898;48.072;11.682;2023-09-12T08:30:42;22.10;70.90
21473;DHT22;10898;48.072;11.682;2023-09-12T08:32:44;22.10;71.10
21473;DHT22;10898;48.072;11.682;2023-09-12T08:34:46;22.20;71.20
21473;DHT22;10898;48.072;11.682;2023-09-12T08:36:48;22.30;71.60
21473;DHT22;10898;48.072;11.682;2023-09-12T08:38:50;22.40;70.80
21473;DHT22;10898;48.072;11.682;2023-09-12T08:40:52;22.50;70.40
21473;DHT22;10898;48.072;11.682;2023-09-12T08:42:54;22.50;68.90
21473;DHT22;10898;48.072;11.682;2023-09-12T08:44:56;22.60;67.90
21473;DHT22;10898;48.072;11.682;2023-09-12T08:46:57;22.70;68.60
21473;DHT22;10898;48.072;11.682;2023-09-12T08:49:01;22.80;67.70
21473;DHT22;10898;48.072;11.682;2023-09-12T08:51:04;22.90;66.10
21473;DHT22;10898;48.072;11.682;2023-09-12T08:53:08;22.90;67.30
21473;DHT22;10898;48.072;11.682;2023-09-12T08:55:11;23.00;67.30
21473;DHT22;10898;48.072;11.682;2023-09-12T08:57:12;23.10;66.10
21473;DHT22;10898;48.072;11.682;2023-09-12T08:59:15;23.20;65.90
21473;DHT22;10898;48.072;11.682;2023-09-12T09:01:17;23.30;66.10
21473;DHT22;10898;48.072;11.682;2023-09-12T09:03:20;23.40;65.20
21473;DHT22;10898;48.072;11.682;2023-09-12T09:05:23;23.50;64.80
21473;DHT22;10898;48.072;11.682;2023-09-12T09:07:26;23.60;65.10
21473;DHT22;10898;48.072;11.682;2023-09-12T09:09:29;23.70;65.10
21473;DHT22;10898;48.072;11.682;2023-09-12T09:11:32;23.80;63.70
21473;DHT22;10898;48.072;11.682;2023-09-12T09:13:33;23.90;63.20
21473;DHT22;10898;48.072;11.682;2023-09-12T09:15:35;23.90;63.90
21473;DHT22;10898;48.072;11.682;2023-09-12T09:17:39;24.00;63.20
21473;DHT22;10898;48.072;11.682;2023-09-12T09:19:47;24.00;63.60
21473;DHT22;10898;48.072;11.682;2023-09-12T09:21:49;24.10;63.30
21473;DHT22;10898;48.072;11.682;2023-09-12T09:23:52;24.20;63.70
21473;DHT22;10898;48.072;11.682;2023-09-12T09:25:53;24.20;61.90
21473;DHT22;10898;48.072;11.682;2023-09-12T09:27:55;24.30;61.80
21473;DHT22;10898;48.072;11.682;2023-09-12T09:29:58;24.40;61.60
21473;DHT22;10898;48.072;11.682;2023-09-12T09:31:59;24.40;62.00
21473;DHT22;10898;48.072;11.682;2023-09-12T09:34:02;24.50;62.00
21473;DHT22;10898;48.072;11.682;2023-09-12T09:36:06;24.60;61.60
21473;DHT22;10898;48.072;11.682;2023-09-12T09:38:08;24.70;61.50
21473;DHT22;10898;48.072;11.682;2023-09-12T09:40:10;24.80;61.80
21473;DHT22;10898;48.072;11.682;2023-09-12T09:42:12;24.80;61.20
21473;DHT22;10898;48.072;11.682;2023-09-12T09:44:14;24.90;60.90
21473;DHT22;10898;48.072;11.682;2023-09-12T09:46:17;25.00;60.50
21473;DHT22;10898;48.072;11.682;2023-09-12T09:48:23;25.00;60.40
21473;DHT22;10898;48.072;11.682;2023-09-12T09:50:25;25.10;60.30
21473;DHT22;10898;48.072;11.682;2023-09-12T09:52:27;25.20;59.50
21473;DHT22;10898;48.072;11.682;2023-09-12T09:54:29;25.20;58.90
21473;DHT22;10898;48.072;11.682;2023-09-12T09:56:31;25.30;59.30
21473;DHT22;10898;48.072;11.682;2023-09-12T09:58:33;25.40;59.10
21473;DHT22;10898;48.072;11.682;2023-09-12T10:00:36;25.40;59.30
21473;DHT22;10898;48.072;11.682;2023-09-12T10:02:38;25.50;57.50
21473;DHT22;10898;48.072;11.682;2023-09-12T10:04:41;25.60;57.80
21473;DHT22;10898;48.072;11.682;2023-09-12T10:06:47;25.60;57.00
21473;DHT22;10898;48.072;11.682;2023-09-12T10:08:50;25.60;56.80
21473;DHT22;10898;48.072;11.682;2023-09-12T10:10:52;25.70;56.60
21473;DHT22;10898;48.072;11.682;2023-09-12T10:12:58;25.80;57.40
21473;DHT22;10898;48.072;11.682;2023-09-12T10:15:00;25.80;57.20
21473;DHT22;10898;48.072;11.682;2023-09-12T10:17:02;25.80;56.80
21473;DHT22;10898;48.072;11.682;2023-09-12T10:19:30;25.90;56.90
21473;DHT22;10898;48.072;11.682;2023-09-12T10:21:33;25.90;55.40
21473;DHT22;10898;48.072;11.682;2023-09-12T10:23:39;26.00;56.40
21473;DHT22;10898;48.072;11.682;2023-09-12T10:25:44;26.00;56.30
21473;DHT22;10898;48.072;11.682;2023-09-12T10:27:48;26.00;55.40
21473;DHT22;10898;48.072;11.682;2023-09-12T10:29:51;26.10;54.30
21473;DHT22;10898;48.072;11.682;2023-09-12T10:31:55;26.10;53.40
21473;DHT22;10898;48.072;11.682;2023-09-12T10:33:57;26.20;53.90
21473;DHT22;10898;48.072;11.682;2023-09-12T10:36:02;26.20;54.20
21473;DHT22;10898;48.072;11.682;2023-09-12T10:38:05;26.20;53.10
21473;DHT22;10898;48.072;11.682;2023-09-12T10:40:09;26.20;53.10
21473;DHT22;10898;48.072;11.682;2023-09-12T10:42:12;26.30;52.60
21473;DHT22;10898;48.072;11.682;2023-09-12T10:44:17;26.40;52.70
21473;DHT22;10898;48.072;11.682;2023-09-12T10:46:19;26.40;52.80
21473;DHT22;10898;48.072;11.682;2023-09-12T10:48:22;26.40;52.00
21473;DHT22;10898;48.072;11.682;2023-09-12T10:50:24;26.40;51.60
21473;DHT22;10898;48.072;11.682;2023-09-12T10:52:27;26.40;51.50
21473;DHT22;10898;48.072;11.682;2023-09-12T10:54:36;26.40;52.20
21473;DHT22;10898;48.072;11.682;2023-09-12T10:56:39;26.40;53.80
21473;DHT22;10898;48.072;11.682;2023-09-12T10:59:24;26.40;53.00
21473;DHT22;10898;48.072;11.682;2023-09-12T11:01:25;26.40;52.50
21473;DHT22;10898;48.072;11.682;2023-09-12T11:07:34;26.50;54.00
21473;DHT22;10898;48.072;11.682;2023-09-12T11:09:44;26.60;53.40
21473;DHT22;10898;48.072;11.682;2023-09-12T11:11:47;26.60;53.10
21473;DHT22;10898;48.072;11.682;2023-09-12T11:14:05;26.60;52.20
21473;DHT22;10898;48.072;11.682;2023-09-12T11:16:10;26.70;51.70
21473;DHT22;10898;48.072;11.682;2023-09-12T11:18:12;26.70;50.70
21473;DHT22;10898;48.072;11.682;2023-09-12T11:20:14;26.70;50.70
21473;DHT22;10898;48.072;11.682;2023-09-12T11:22:24;26.70;50.60
21473;DHT22;10898;48.072;11.682;2023-09-12T11:24:25;26.80;50.60
21473;DHT22;10898;48.072;11.682;2023-09-12T11:26:27;26.90;50.70
21473;DHT22;10898;48.072;11.682;2023-09-12T11:28:29;26.90;50.20
21473;DHT22;10898;48.072;11.682;2023-09-12T11:30:31;27.00;48.70
21473;DHT22;10898;48.072;11.682;2023-09-12T11:32:35;27.10;47.90
21473;DHT22;10898;48.072;11.682;2023-09-12T11:34:38;27.10;48.20
21473;DHT22;10898;48.072;11.682;2023-09-12T11:36:42;27.10;48.70
21473;DHT22;10898;48.072;11.682;2023-09-12T11:38:44;27.10;49.60
21473;DHT22;10898;48.072;11.682;2023-09-12T11:40:50;27.10;48.60
21473;DHT22;10898;48.072;11.682;2023-09-12T11:42:52;27.10;47.30
21473;DHT22;10898;48.072;11.682;2023-09-12T11:44:54;27.10;47.30
21473;DHT22;10898;48.072;11.682;2023-09-12T11:47:00;27.00;47.00
21473;DHT22;10898;48.072;11.682;2023-09-12T11:49:07;27.00;47.80
21473;DHT22;10898;48.072;11.682;2023-09-12T11:51:09;27.00;48.50
21473;DHT22;10898;48.072;11.682;2023-09-12T11:53:11;27.00;47.90
21473;DHT22;10898;48.072;11.682;2023-09-12T11:55:21;27.10;48.70
21473;DHT22;10898;48.072;11.682;2023-09-12T11:57:23;27.10;49.30
21473;DHT22;10898;48.072;11.682;2023-09-12T11:59:27;27.10;49.70
21473;DHT22;10898;48.072;11.682;2023-09-12T12:01:29;27.20;49.70
21473;DHT22;10898;48.072;11.682;2023-09-12T12:03:32;27.20;49.30
21473;DHT22;10898;48.072;11.682;2023-09-12T12:05:34;27.20;48.90
21473;DHT22;10898;48.072;11.682;2023-09-12T12:07:36;27.30;47.10
21473;DHT22;10898;48.072;11.682;2023-09-12T12:09:37;27.40;46.40
21473;DHT22;10898;48.072;11.682;2023-09-12T12:11:40;27.40;47.10
21473;DHT22;10898;48.072;11.682;2023-09-12T12:13:43;27.50;46.00
21473;DHT22;10898;48.072;11.682;2023-09-12T12:15:45;27.50;46.30
21473;DHT22;10898;48.072;11.682;2023-09-12T12:17:47;27.50;46.20
21473;DHT22;10898;48.072;11.682;2023-09-12T12:19:48;27.60;47.50
21473;DHT22;10898;48.072;11.682;2023-09-12T12:21:51;27.70;46.70
21473;DHT22;10898;48.072;11.682;2023-09-12T12:24:02;27.70;47.10
21473;DHT22;10898;48.072;11.682;2023-09-12T12:26:08;27.80;45.70
21473;DHT22;10898;48.072;11.682;2023-09-12T12:28:10;27.90;47.00
21473;DHT22;10898;48.072;11.682;2023-09-12T12:30:12;28.00;44.00
21473;DHT22;10898;48.072;11.682;2023-09-12T12:32:15;28.00;43.70
21473;DHT22;10898;48.072;11.682;2023-09-12T12:34:21;28.00;44.40
21473;DHT22;10898;48.072;11.682;2023-09-12T12:36:42;28.00;42.90
21473;DHT22;10898;48.072;11.682;2023-09-12T12:38:57;28.00;43.70
21473;DHT22;10898;48.072;11.682;2023-09-12T12:40:59;28.00;45.80
21473;DHT22;10898;48.072;11.682;2023-09-12T12:43:01;28.10;47.50
21473;DHT22;10898;48.072;11.682;2023-09-12T12:46:03;28.10;48.20
21473;DHT22;10898;48.072;11.682;2023-09-12T12:48:11;28.10;43.50
21473;DHT22;10898;48.072;11.682;2023-09-12T12:50:13;28.10;42.20
21473;DHT22;10898;48.072;11.682;2023-09-12T12:52:15;28.30;43.20
21473;DHT22;10898;48.072;11.682;2023-09-12T12:54:21;28.40;45.60
21473;DHT22;10898;48.072;11.682;2023-09-12T12:56:27;28.50;43.40
21473;DHT22;10898;48.072;11.682;2023-09-12T12:58:32;28.60;43.20
21473;DHT22;10898;48.072;11.682;2023-09-12T13:00:34;28.70;44.50
21473;DHT22;10898;48.072;11.682;2023-09-12T13:02:40;28.90;45.90
21473;DHT22;10898;48.072;11.682;2023-09-12T13:04:42;29.00;44.40
21473;DHT22;10898;48.072;11.682;2023-09-12T13:06:44;29.10;45.40
21473;DHT22;10898;48.072;11.682;2023-09-12T13:08:46;29.30;45.70
21473;DHT22;10898;48.072;11.682;2023-09-12T13:10:48;29.30;44.00
21473;DHT22;10898;48.072;11.682;2023-09-12T13:12:50;29.40;44.70
21473;DHT22;10898;48.072;11.682;2023-09-12T13:14:54;29.50;46.20
21473;DHT22;10898;48.072;11.682;2023-09-12T13:16:57;29.50;46.30
21473;DHT22;10898;48.072;11.682;2023-09-12T13:18:59;29.60;46.90
21473;DHT22;10898;48.072;11.682;2023-09-12T13:21:01;29.70;47.30
21473;DHT22;10898;48.072;11.682;2023-09-12T13:23:03;29.80;47.20
21473;DHT22;10898;48.072;11.682;2023-09-12T13:25:05;30.00;46.60
21473;DHT22;10898;48.072;11.682;2023-09-12T13:27:07;30.10;46.60
21473;DHT22;10898;48.072;11.682;2023-09-12T13:29:09;30.10;45.30
21473;DHT22;10898;48.072;11.682;2023-09-12T13:31:11;30.30;44.80
21473;DHT22;10898;48.072;11.682;2023-09-12T13:33:13;30.30;44.30
21473;DHT22;10898;48.072;11.682;2023-09-12T13:35:17;30.40;45.40
21473;DHT22;10898;48.072;11.682;2023-09-12T13:37:18;30.50;44.60
21473;DHT22;10898;48.072;11.682;2023-09-12T13:39:20;30.50;43.40
21473;DHT22;10898;48.072;11.682;2023-09-12T13:41:22;30.50;43.70
21473;DHT22;10898;48.072;11.682;2023-09-12T13:43:24;30.50;44.00
21473;DHT22;10898;48.072;11.682;2023-09-12T13:45:26;30.60;44.00
21473;DHT22;10898;48.072;11.682;2023-09-12T13:47:28;30.70;44.50
21473;DHT22;10898;48.072;11.682;2023-09-12T13:49:30;30.80;44.20
21473;DHT22;10898;48.072;11.682;2023-09-12T13:51:32;30.90;42.90
21473;DHT22;10898;48.072;11.682;2023-09-12T13:53:34;30.90;43.60
21473;DHT22;10898;48.072;11.682;2023-09-12T13:55:36;31.10;44.20